createdAt,value
2023-02-19T00:00:19.820Z,3.51
2023-02-19T00:02:48.412Z,3.57
2023-02-19T00:05:19.021Z,3.54
2023-02-19T00:07:47.562Z,3.50
2023-02-19T00:10:16.236Z,3.50
2023-02-19T00:12:45.078Z,3.47
2023-02-19T00:15:15.404Z,3.44
2023-02-19T00:17:43.944Z,3.42
2023-02-19T00:20:16.332Z,3.50
2023-02-19T00:22:47.083Z,3.54
2023-02-19T00:25:15.422Z,3.51
2023-02-19T00:27:44.063Z,3.47
2023-02-19T00:30:12.734Z,3.44
2023-02-19T00:32:42.037Z,3.41
2023-02-19T00:35:12.585Z,3.37
2023-02-19T00:37:40.998Z,3.33
2023-02-19T00:40:09.974Z,3.36
2023-02-19T00:42:38.260Z,3.47
2023-02-19T00:45:07.001Z,3.47
2023-02-19T00:47:35.156Z,3.43
2023-02-19T00:50:03.271Z,3.40
2023-02-19T00:52:31.793Z,3.37
2023-02-19T00:55:00.322Z,3.34
2023-02-19T00:57:29.349Z,3.33
2023-02-19T00:59:57.794Z,3.31
2023-02-19T01:02:27.313Z,3.30
2023-02-19T01:04:57.902Z,3.39
2023-02-19T01:07:26.762Z,3.44
2023-02-19T01:09:55.131Z,3.41
2023-02-19T01:12:26.779Z,3.39
2023-02-19T01:14:55.848Z,3.37
2023-02-19T01:17:24.386Z,3.33
2023-02-19T01:19:53.326Z,3.33
2023-02-19T01:22:21.943Z,3.31
2023-02-19T01:24:50.163Z,3.37
2023-02-19T01:27:18.666Z,3.46
2023-02-19T01:29:51.073Z,3.45
2023-02-19T01:32:19.514Z,3.41
2023-02-19T01:34:47.779Z,3.38
2023-02-19T01:37:15.918Z,3.33
2023-02-19T01:39:44.169Z,3.31
2023-02-19T01:42:14.683Z,3.30
2023-02-19T01:44:43.193Z,3.27
2023-02-19T01:47:12.134Z,3.34
2023-02-19T01:49:48.916Z,3.45
2023-02-19T01:52:48.213Z,3.44
2023-02-19T01:55:16.554Z,3.41
2023-02-19T01:57:46.506Z,3.39
2023-02-19T02:00:17.592Z,3.34
2023-02-19T02:02:49.974Z,3.30
2023-02-19T02:05:39.751Z,3.26
2023-02-19T02:08:26.963Z,3.22
2023-02-19T02:10:55.788Z,3.31
2023-02-19T02:13:24.005Z,3.35
2023-02-19T02:16:23.329Z,3.32
2023-02-19T02:19:16.553Z,3.28
2023-02-19T02:21:51.398Z,3.24
2023-02-19T02:25:00.796Z,3.19
2023-02-19T02:27:29.421Z,3.19
2023-02-19T02:30:05.587Z,3.29
2023-02-19T02:32:53.606Z,3.29
2023-02-19T02:35:28.544Z,3.25
2023-02-19T02:37:58.348Z,3.20
2023-02-19T02:40:31.178Z,3.17
2023-02-19T02:43:00.889Z,3.11
2023-02-19T02:45:37.034Z,3.08
2023-02-19T02:48:20.748Z,3.16
2023-02-19T02:50:53.788Z,3.09
2023-02-19T02:53:44.539Z,3.00
2023-02-19T02:56:14.212Z,2.88
2023-02-19T02:58:43.910Z,2.80
2023-02-19T03:01:41.970Z,2.74
2023-02-19T03:04:14.434Z,2.83
2023-02-19T03:06:43.028Z,2.86
2023-02-19T03:09:14.854Z,2.79
2023-02-19T03:12:02.945Z,2.71
2023-02-19T03:14:58.700Z,2.63
2023-02-19T03:18:10.956Z,2.53
2023-02-19T03:20:42.103Z,2.57
2023-02-19T03:23:10.337Z,2.56
2023-02-19T03:25:58.187Z,2.49
2023-02-19T03:28:57.843Z,2.40
2023-02-19T03:31:28.116Z,2.32
2023-02-19T03:34:05.269Z,2.28
2023-02-19T03:36:40.147Z,2.38
2023-02-19T03:39:09.417Z,2.42
2023-02-19T03:42:10.552Z,2.41
2023-02-19T03:45:02.048Z,2.42
2023-02-19T03:47:36.291Z,2.40
2023-02-19T03:50:14.688Z,2.42
2023-02-19T03:53:02.683Z,2.49
2023-02-19T03:55:38.368Z,2.44
2023-02-19T03:58:21.171Z,2.36
2023-02-19T04:00:55.806Z,2.27
2023-02-19T04:03:45.498Z,2.21
2023-02-19T04:06:28.921Z,2.27
2023-02-19T04:09:03.504Z,2.26
2023-02-19T04:11:31.699Z,2.21
2023-02-19T04:14:23.822Z,2.15
2023-02-19T04:16:55.956Z,2.12
2023-02-19T04:19:26.662Z,2.21
2023-02-19T04:21:55.277Z,2.24
2023-02-19T04:24:31.265Z,2.20
2023-02-19T04:26:59.367Z,2.14
2023-02-19T04:29:27.651Z,2.08
2023-02-19T04:31:56.197Z,2.05
2023-02-19T04:34:24.487Z,2.12
2023-02-19T04:36:52.717Z,2.10
2023-02-19T04:41:18.735Z,1.96
2023-02-19T04:43:48.019Z,1.87
2023-02-19T04:46:18.479Z,1.90
2023-02-19T04:48:47.057Z,1.92
2023-02-19T04:51:15.757Z,1.84
2023-02-19T04:53:44.549Z,1.76
2023-02-19T04:56:15.753Z,1.70
2023-02-19T04:58:44.597Z,1.75
2023-02-19T05:01:13.435Z,1.78
2023-02-19T05:03:42.056Z,1.71
2023-02-19T05:06:12.477Z,1.64
2023-02-19T05:08:40.843Z,1.58
2023-02-19T05:11:11.083Z,1.53
2023-02-19T05:13:42.461Z,1.58
2023-02-19T05:16:19.142Z,1.60
2023-02-19T05:18:47.782Z,1.54
2023-02-19T05:21:16.274Z,1.48
2023-02-19T05:23:44.885Z,1.42
2023-02-19T05:26:18.037Z,1.47
2023-02-19T05:28:48.619Z,1.51
2023-02-19T05:31:17.086Z,1.46
2023-02-19T05:33:48.850Z,1.41
2023-02-19T05:36:18.682Z,1.40
2023-02-19T05:38:47.113Z,1.50
2023-02-19T05:41:21.877Z,1.57
2023-02-19T05:43:50.709Z,1.54
2023-02-19T05:46:21.178Z,1.50
2023-02-19T05:48:49.552Z,1.48
2023-02-19T05:51:19.505Z,1.54
2023-02-19T05:53:47.989Z,1.69
2023-02-19T05:56:31.847Z,1.71
2023-02-19T05:59:01.359Z,1.71
2023-02-19T06:01:30.249Z,1.72
2023-02-19T06:04:00.314Z,1.73
2023-02-19T06:06:29.494Z,1.85
2023-02-19T06:08:58.221Z,1.99
2023-02-19T06:11:29.404Z,2.02
2023-02-19T06:13:57.486Z,2.04
2023-02-19T06:16:26.669Z,2.06
2023-02-19T06:18:55.875Z,2.08
2023-02-19T06:21:24.352Z,2.21
2023-02-19T06:23:52.622Z,2.28
2023-02-19T06:26:23.135Z,2.35
2023-02-19T06:28:54.255Z,2.37
2023-02-19T06:31:23.427Z,2.38
2023-02-19T06:33:52.264Z,2.41
2023-02-19T06:36:20.943Z,2.46
2023-02-19T06:38:50.682Z,2.60
2023-02-19T06:41:20.762Z,2.69
2023-02-19T06:43:49.577Z,2.71
2023-02-19T06:46:18.576Z,2.70
2023-02-19T06:48:47.554Z,2.67
2023-02-19T06:51:26.567Z,2.71
2023-02-19T06:53:58.724Z,2.85
2023-02-19T06:56:30.978Z,2.89
2023-02-19T06:59:02.309Z,2.90
2023-02-19T07:01:32.772Z,2.90
2023-02-19T07:04:02.376Z,2.91
2023-02-19T07:06:31.398Z,3.00
2023-02-19T07:09:00.847Z,3.12
2023-02-19T07:11:32.012Z,3.12
2023-02-19T07:14:04.213Z,3.11
2023-02-19T07:16:32.565Z,3.10
2023-02-19T07:19:01.828Z,3.14
2023-02-19T07:21:31.432Z,3.26
2023-02-19T07:24:00.287Z,3.27
2023-02-19T07:26:29.458Z,3.25
2023-02-19T07:28:59.653Z,3.24
2023-02-19T07:31:28.628Z,3.25
2023-02-19T07:34:02.590Z,3.30
2023-02-19T07:36:30.976Z,3.48
2023-02-19T07:38:59.987Z,3.57
2023-02-19T07:41:29.299Z,3.62
2023-02-19T07:44:00.337Z,3.66
2023-02-19T07:46:30.373Z,3.70
2023-02-19T07:49:00.193Z,3.75
2023-02-19T07:51:30.227Z,3.85
2023-02-19T07:54:01.576Z,3.96
2023-02-19T07:56:31.032Z,3.96
2023-02-19T07:59:00.486Z,3.91
2023-02-19T08:01:48.349Z,3.87
2023-02-19T08:04:16.588Z,3.84
2023-02-19T08:06:45.068Z,3.90
2023-02-19T08:09:15.960Z,3.99
2023-02-19T08:12:11.580Z,3.98
2023-02-19T08:14:40.516Z,3.94
2023-02-19T08:17:11.356Z,3.98
2023-02-19T08:19:59.663Z,3.99
2023-02-19T08:22:28.858Z,4.00
2023-02-19T08:24:58.562Z,4.01
2023-02-19T08:27:30.226Z,4.11
2023-02-19T08:30:07.019Z,4.11
2023-02-19T08:32:36.828Z,4.06
2023-02-19T08:35:07.923Z,3.97
2023-02-19T08:37:36.324Z,3.94
2023-02-19T08:40:12.532Z,3.92
2023-02-19T08:42:41.102Z,3.86
2023-02-19T08:45:10.297Z,3.78
2023-02-19T08:47:39.476Z,3.73
2023-02-19T08:50:08.409Z,3.85
2023-02-19T08:52:36.986Z,3.92
2023-02-19T08:55:06.173Z,3.96
2023-02-19T08:57:38.584Z,3.98
2023-02-19T09:00:09.177Z,3.97
2023-02-19T09:02:37.576Z,3.92
2023-02-19T09:05:06.760Z,3.87
2023-02-19T09:07:36.783Z,3.81
2023-02-19T09:10:05.124Z,3.75
2023-02-19T09:12:33.972Z,3.70
2023-02-19T09:15:07.604Z,3.68
2023-02-19T09:17:36.406Z,3.75
2023-02-19T09:20:04.753Z,3.74
2023-02-19T09:22:34.226Z,3.73
2023-02-19T09:25:02.596Z,3.71
2023-02-19T09:27:32.441Z,3.67
2023-02-19T09:30:00.503Z,3.61
2023-02-19T09:32:31.221Z,3.52
2023-02-19T09:35:20.900Z,3.45
2023-02-19T09:37:52.630Z,3.45
2023-02-19T09:40:21.962Z,3.53
2023-02-19T09:42:54.862Z,3.51
2023-02-19T09:45:24.218Z,3.48
2023-02-19T09:47:56.543Z,3.45
2023-02-19T09:50:31.867Z,3.45
2023-02-19T09:53:03.979Z,3.47
2023-02-19T09:55:34.650Z,3.50
2023-02-19T09:58:14.304Z,3.56
2023-02-19T10:00:42.425Z,3.61
2023-02-19T10:03:12.787Z,3.65
2023-02-19T10:05:40.942Z,3.79
2023-02-19T10:08:14.472Z,3.91
2023-02-19T10:10:44.488Z,3.92
2023-02-19T10:13:20.821Z,3.89
2023-02-19T10:15:56.598Z,3.87
2023-02-19T10:18:29.548Z,3.81
2023-02-19T10:20:57.706Z,3.72
2023-02-19T10:23:26.258Z,3.66
2023-02-19T10:25:58.372Z,3.62
2023-02-19T10:28:30.514Z,3.61
2023-02-19T10:31:02.115Z,3.62
2023-02-19T10:33:30.768Z,3.64
2023-02-19T10:36:06.732Z,3.65
2023-02-19T10:38:37.018Z,3.63
2023-02-19T10:41:21.131Z,3.62
2023-02-19T10:43:57.884Z,3.60
2023-02-19T10:46:28.586Z,3.58
2023-02-19T10:49:04.667Z,3.55
2023-02-19T10:51:35.930Z,3.51
2023-02-19T10:54:31.693Z,3.48
2023-02-19T10:57:17.140Z,3.49
2023-02-19T10:59:53.287Z,3.65
2023-02-19T11:02:21.895Z,3.83
2023-02-19T11:05:17.285Z,3.89
2023-02-19T11:07:54.789Z,3.92
2023-02-19T11:10:42.409Z,3.97
2023-02-19T11:13:16.507Z,4.02
2023-02-19T11:15:45.020Z,4.02
2023-02-19T11:18:13.233Z,3.99
2023-02-19T11:20:56.314Z,3.95
2023-02-19T11:23:32.220Z,3.94
2023-02-19T11:26:03.827Z,3.92
2023-02-19T11:28:32.953Z,3.92
2023-02-19T11:31:20.066Z,3.91
2023-02-19T11:34:01.836Z,3.88
2023-02-19T11:36:34.424Z,3.85
2023-02-19T11:39:17.210Z,3.85
2023-02-19T11:41:57.496Z,3.84
2023-02-19T11:44:44.040Z,3.84
2023-02-19T11:47:50.874Z,3.86
2023-02-19T11:50:50.606Z,3.90
2023-02-19T11:53:25.343Z,3.92
2023-02-19T11:56:44.782Z,3.94
2023-02-19T11:59:21.614Z,3.98
2023-02-19T12:02:14.703Z,4.00
2023-02-19T12:04:53.484Z,4.01
2023-02-19T12:07:49.051Z,4.00
2023-02-19T12:10:20.392Z,4.00
2023-02-19T12:13:10.531Z,4.03
2023-02-19T12:19:04.147Z,4.05
2023-02-19T12:21:51.694Z,4.03
2023-02-19T12:24:27.341Z,4.02
2023-02-19T12:27:02.015Z,4.03
2023-02-19T12:29:48.208Z,4.00
2023-02-19T12:32:16.973Z,4.00
2023-02-19T12:34:51.618Z,3.99
2023-02-19T12:37:31.814Z,3.99
2023-02-19T12:40:31.795Z,3.99
2023-02-19T12:43:23.825Z,3.98
2023-02-19T12:45:58.278Z,3.97
2023-02-19T12:48:39.094Z,3.94
2023-02-19T12:51:12.078Z,3.88
2023-02-19T12:54:01.531Z,3.82
2023-02-19T12:56:40.228Z,3.79
2023-02-19T12:59:23.813Z,3.78
2023-02-19T13:02:04.226Z,3.79
2023-02-19T13:04:39.306Z,3.81
2023-02-19T13:07:17.348Z,3.81
2023-02-19T13:10:22.452Z,3.83
2023-02-19T13:12:51.815Z,3.88
2023-02-19T13:15:41.772Z,3.90
2023-02-19T13:18:16.477Z,3.92
2023-02-19T13:20:51.822Z,3.92
2023-02-19T13:23:52.679Z,3.89
2023-02-19T13:26:33.430Z,3.89
2023-02-19T13:29:25.079Z,3.88
2023-02-19T13:32:21.519Z,3.87
2023-02-19T13:35:27.647Z,3.85
2023-02-19T13:37:56.233Z,3.83
2023-02-19T13:40:31.173Z,3.79
2023-02-19T13:43:00.917Z,3.75
2023-02-19T13:45:43.468Z,3.71
2023-02-19T13:48:46.418Z,3.67
2023-02-19T13:51:19.164Z,3.63
2023-02-19T13:53:48.330Z,3.60
2023-02-19T13:56:34.990Z,3.57
2023-02-19T13:59:34.035Z,3.56
2023-02-19T14:02:05.276Z,3.56
2023-02-19T14:05:00.314Z,3.54
2023-02-19T14:07:31.876Z,3.54
2023-02-19T14:10:02.168Z,3.51
2023-02-19T14:12:36.945Z,3.49
2023-02-19T14:15:30.165Z,3.48
2023-02-19T14:17:58.890Z,3.47
2023-02-19T14:20:45.000Z,3.46
2023-02-19T14:23:17.621Z,3.46
2023-02-19T14:25:53.316Z,3.44
2023-02-19T14:28:27.821Z,3.40
2023-02-19T14:31:01.390Z,3.37
2023-02-19T14:33:34.938Z,3.35
2023-02-19T14:36:44.514Z,3.32
2023-02-19T14:39:17.505Z,3.29
2023-02-19T14:42:15.882Z,3.26
2023-02-19T14:44:52.616Z,3.23
2023-02-19T14:47:22.089Z,3.21
2023-02-19T14:49:52.387Z,3.19
2023-02-19T14:52:24.880Z,3.17
2023-02-19T14:54:55.716Z,3.15
2023-02-19T14:57:45.579Z,3.14
2023-02-19T15:00:24.228Z,3.11
2023-02-19T15:02:54.004Z,3.09
2023-02-19T15:05:24.515Z,3.07
2023-02-19T15:07:53.935Z,3.05
2023-02-19T15:10:22.157Z,3.04
2023-02-19T15:12:58.230Z,3.04
2023-02-19T15:15:29.255Z,3.03
2023-02-19T15:17:57.200Z,3.01
2023-02-19T15:20:30.509Z,3.00
2023-02-19T15:22:59.617Z,2.98
2023-02-19T15:25:34.064Z,2.97
2023-02-19T15:28:24.159Z,2.96
2023-02-19T15:30:57.846Z,2.95
2023-02-19T15:33:29.562Z,2.94
2023-02-19T15:35:59.315Z,2.94
2023-02-19T15:38:29.876Z,2.93
2023-02-19T15:41:00.678Z,2.93
2023-02-19T15:43:59.179Z,2.92
2023-02-19T15:46:28.017Z,2.90
2023-02-19T15:49:13.254Z,2.89
2023-02-19T15:51:54.940Z,2.88
2023-02-19T15:55:00.400Z,2.86
2023-02-19T15:57:32.723Z,2.84
2023-02-19T16:00:07.628Z,2.83
2023-02-19T16:02:43.906Z,2.82
2023-02-19T16:05:24.097Z,2.80
2023-02-19T16:08:17.460Z,2.79
2023-02-19T16:10:54.479Z,2.78
2023-02-19T16:13:34.016Z,2.76
2023-02-19T16:16:15.241Z,2.75
2023-02-19T16:18:48.179Z,2.74
2023-02-19T16:21:20.299Z,2.73
2023-02-19T16:23:49.957Z,2.73
2023-02-19T16:26:18.104Z,2.72
2023-02-19T16:28:46.395Z,2.70
2023-02-19T16:31:15.415Z,2.69
2023-02-19T16:33:48.652Z,2.69
2023-02-19T16:36:18.752Z,2.68
2023-02-19T16:39:07.056Z,2.65
2023-02-19T16:41:41.195Z,2.65
2023-02-19T16:44:22.027Z,2.64
2023-02-19T16:47:27.102Z,2.64
2023-02-19T16:50:00.520Z,2.62
2023-02-19T16:53:02.746Z,2.61
2023-02-19T16:55:35.263Z,2.60
2023-02-19T16:59:19.996Z,2.62
2023-02-19T17:01:48.330Z,2.60
2023-02-19T17:04:16.483Z,2.60
2023-02-19T17:06:45.668Z,2.60
2023-02-19T17:09:14.874Z,2.58
2023-02-19T17:11:43.063Z,2.54
2023-02-19T17:14:11.377Z,2.51
2023-02-19T17:16:40.654Z,2.47
2023-02-19T17:19:18.780Z,2.44
2023-02-19T17:21:47.696Z,2.39
2023-02-19T17:24:21.182Z,2.34
2023-02-19T17:26:49.848Z,2.29
2023-02-19T17:29:20.319Z,2.25
2023-02-19T17:31:48.721Z,2.22
2023-02-19T17:34:17.876Z,2.19
2023-02-19T17:36:47.171Z,2.18
2023-02-19T17:39:15.619Z,2.19
2023-02-19T17:41:43.865Z,2.20
2023-02-19T17:44:13.678Z,2.21
2023-02-19T17:46:42.119Z,2.21
2023-02-19T17:49:11.413Z,2.24
2023-02-19T17:51:40.556Z,2.26
2023-02-19T17:54:11.315Z,2.40
2023-02-19T17:56:43.436Z,2.58
2023-02-19T17:59:12.479Z,2.63
2023-02-19T18:01:40.812Z,2.63
2023-02-19T18:04:11.399Z,2.64
2023-02-19T18:06:39.713Z,2.64
2023-02-19T18:09:08.150Z,2.62
2023-02-19T18:11:37.627Z,2.60
2023-02-19T18:14:14.634Z,2.58
2023-02-19T18:16:50.009Z,2.56
2023-02-19T18:19:18.659Z,2.52
2023-02-19T18:21:49.542Z,2.50
2023-02-19T18:24:21.526Z,2.48
2023-02-19T18:26:50.388Z,2.46
2023-02-19T18:29:20.451Z,2.44
2023-02-19T18:31:50.089Z,2.40
2023-02-19T18:34:19.189Z,2.33
2023-02-19T18:36:51.160Z,2.25
2023-02-19T18:39:19.616Z,2.18
2023-02-19T18:41:53.293Z,2.11
2023-02-19T18:44:22.457Z,2.16
2023-02-19T18:46:51.471Z,2.23
2023-02-19T18:49:19.784Z,2.16
2023-02-19T18:51:48.260Z,2.09
2023-02-19T18:54:17.489Z,2.02
2023-02-19T18:56:46.479Z,1.95
2023-02-19T18:59:16.486Z,1.88
2023-02-19T19:01:45.081Z,1.79
2023-02-19T19:04:15.749Z,1.71
2023-02-19T19:06:44.938Z,1.63
2023-02-19T19:09:13.905Z,1.56
2023-02-19T19:11:44.720Z,1.51
2023-02-19T19:14:13.801Z,1.46
2023-02-19T19:16:43.468Z,1.54
2023-02-19T19:19:12.950Z,1.62
2023-02-19T19:21:41.549Z,1.59
2023-02-19T19:24:09.966Z,1.56
2023-02-19T19:26:45.085Z,1.52
2023-02-19T19:29:16.014Z,1.48
2023-02-19T19:31:44.793Z,1.44
2023-02-19T19:34:13.373Z,1.42
2023-02-19T19:36:41.621Z,1.40
2023-02-19T19:39:10.653Z,1.38
2023-02-19T19:41:41.609Z,1.36
2023-02-19T19:44:11.557Z,1.36
2023-02-19T19:46:45.435Z,1.35
2023-02-19T19:49:20.262Z,1.37
2023-02-19T19:51:50.100Z,1.50
2023-02-19T19:54:18.523Z,1.58
2023-02-19T19:56:51.282Z,1.55
2023-02-19T19:59:19.457Z,1.52
2023-02-19T20:01:51.422Z,1.48
2023-02-19T20:04:21.747Z,1.45
2023-02-19T20:06:50.652Z,1.42
2023-02-19T20:09:26.007Z,1.37
2023-02-19T20:11:55.364Z,1.31
2023-02-19T20:14:24.795Z,1.23
2023-02-19T20:16:55.211Z,1.17
2023-02-19T20:19:26.398Z,1.10
2023-02-19T20:21:55.343Z,1.05
2023-02-19T20:24:26.299Z,1.11
2023-02-19T20:26:59.909Z,1.18
2023-02-19T20:29:32.380Z,1.12
2023-02-19T20:32:03.825Z,1.04
2023-02-19T20:34:38.444Z,0.96
2023-02-19T20:37:07.746Z,0.89
2023-02-19T20:39:38.148Z,0.83
2023-02-19T20:42:09.394Z,0.76
2023-02-19T20:44:37.948Z,0.68
2023-02-19T20:47:06.611Z,0.63
2023-02-19T20:49:37.207Z,0.62
2023-02-19T20:52:07.059Z,0.72
2023-02-19T20:54:38.464Z,0.71
2023-02-19T20:57:06.711Z,0.65
2023-02-19T20:59:35.598Z,0.60
2023-02-19T21:02:14.464Z,0.56
2023-02-19T21:04:44.669Z,0.54
2023-02-19T21:07:12.833Z,0.49
2023-02-19T21:09:41.136Z,0.45
2023-02-19T21:12:11.275Z,0.40
2023-02-19T21:14:41.754Z,0.36
2023-02-19T21:17:10.954Z,0.45
2023-02-19T21:19:40.619Z,0.50
2023-02-19T21:22:08.689Z,0.45
2023-02-19T21:24:37.354Z,0.41
2023-02-19T21:27:08.149Z,0.38
2023-02-19T21:29:36.348Z,0.34
2023-02-19T21:32:07.373Z,0.31
2023-02-19T21:34:38.499Z,0.28
2023-02-19T21:37:09.079Z,0.26
2023-02-19T21:39:39.547Z,0.36
2023-02-19T21:42:07.789Z,0.41
2023-02-19T21:44:43.221Z,0.37
2023-02-19T21:47:17.184Z,0.32
2023-02-19T21:49:46.473Z,0.27
2023-02-19T21:52:16.319Z,0.23
2023-02-19T21:54:45.663Z,0.18
2023-02-19T21:57:15.116Z,0.15
2023-02-19T21:59:45.806Z,0.23
2023-02-19T22:02:14.753Z,0.29
2023-02-19T22:04:44.353Z,0.25
2023-02-19T22:07:13.904Z,0.18
2023-02-19T22:09:43.027Z,0.11
2023-02-19T22:12:13.994Z,0.05
2023-02-19T22:14:44.570Z,-0.02
2023-02-19T22:17:14.580Z,-0.06
2023-02-19T22:19:43.354Z,0.00
2023-02-19T22:22:11.827Z,0.04
2023-02-19T22:24:40.840Z,-0.01
2023-02-19T22:27:10.549Z,-0.07
2023-02-19T22:29:39.188Z,-0.14
2023-02-19T22:32:10.113Z,-0.20
2023-02-19T22:34:40.541Z,-0.25
2023-02-19T22:37:10.311Z,-0.30
2023-02-19T22:39:43.637Z,-0.23
2023-02-19T22:42:12.404Z,-0.19
2023-02-19T22:44:44.537Z,-0.26
2023-02-19T22:47:14.731Z,-0.33
2023-02-19T22:49:45.609Z,-0.38
2023-02-19T22:52:14.916Z,-0.44
2023-02-19T22:54:44.554Z,-0.48
2023-02-19T22:57:12.914Z,-0.46
2023-02-19T22:59:42.114Z,-0.36
2023-02-19T23:02:10.408Z,-0.37
2023-02-19T23:04:38.753Z,-0.42
2023-02-19T23:07:07.614Z,-0.47
2023-02-19T23:09:35.951Z,-0.51
2023-02-19T23:12:06.314Z,-0.56
2023-02-19T23:14:34.965Z,-0.62
2023-02-19T23:17:03.668Z,-0.65
2023-02-19T23:19:32.637Z,-0.57
2023-02-19T23:22:01.876Z,-0.51
2023-02-19T23:24:30.665Z,-0.55
2023-02-19T23:27:00.927Z,-0.60
2023-02-19T23:29:31.022Z,-0.63
2023-02-19T23:32:00.566Z,-0.68
2023-02-19T23:34:29.466Z,-0.73
2023-02-19T23:37:00.279Z,-0.77
2023-02-19T23:39:28.911Z,-0.81
2023-02-19T23:42:03.296Z,-0.72
2023-02-19T23:44:32.157Z,-0.67
2023-02-19T23:47:00.788Z,-0.71
2023-02-19T23:49:29.008Z,-0.76
2023-02-19T23:51:57.338Z,-0.81
2023-02-19T23:54:26.178Z,-0.84
2023-02-19T23:56:55.520Z,-0.87
2023-02-19T23:59:24.093Z,-0.89
